ASA394 PAKT-PAJN
Flight info
| Callsign | ASA394 |
|---|---|
| Flight time | 0h 43m |
| Altitude | 32000 |
| Route | ANN SAXRY |
| Aircraft | B738/M-SDE2E3FGHIRWXY/LB1 |
Departure
| Time | 2026-04-25 17:05 |
|---|---|
| Airport | Ketchikan International Airport (PAKT) |
Arrival
| Time | 2026-04-25 17:48 |
|---|---|
| Airport | Juneau International Airport (PAJN) |
| Time | Latitude | Longitude | Altitude | Speed | Heading |
|---|---|---|---|---|---|
| 2026-04-25 16:48 | 55.35653 | -131.71034 | 95 ft | 0 kts | 41° |
| 2026-04-25 16:54 | 55.35644 | -131.71047 | 94 ft | 2 kts | 43° |
| 2026-04-25 16:54 | 55.35633 | -131.71067 | 96 ft | 2 kts | 45° |
| 2026-04-25 16:54 | 55.35621 | -131.71087 | 95 ft | 2 kts | 41° |
| 2026-04-25 16:55 | 55.35609 | -131.71106 | 93 ft | 2 kts | 43° |
| 2026-04-25 16:55 | 55.35597 | -131.71125 | 94 ft | 2 kts | 76° |
| 2026-04-25 16:55 | 55.35602 | -131.71143 | 95 ft | 1 kts | 141° |
| 2026-04-25 16:55 | 55.35603 | -131.71144 | 95 ft | 0 kts | 141° |
| 2026-04-25 16:58 | 55.35565 | -131.71075 | 96 ft | 15 kts | 135° |
| 2026-04-25 16:59 | 55.35486 | -131.70942 | 96 ft | 16 kts | 135° |
| 2026-04-25 16:59 | 55.35407 | -131.70805 | 98 ft | 18 kts | 135° |
| 2026-04-25 16:59 | 55.35309 | -131.70637 | 97 ft | 20 kts | 137° |
| 2026-04-25 16:59 | 55.35212 | -131.70478 | 95 ft | 19 kts | 137° |
| 2026-04-25 17:00 | 55.35120 | -131.70331 | 99 ft | 17 kts | 137° |
| 2026-04-25 17:00 | 55.35061 | -131.70237 | 99 ft | 17 kts | 137° |
| 2026-04-25 17:00 | 55.34997 | -131.70136 | 96 ft | 8 kts | 139° |
| 2026-04-25 17:00 | 55.34959 | -131.70081 | 97 ft | 23 kts | 140° |
| 2026-04-25 17:01 | 55.34877 | -131.70043 | 100 ft | 12 kts | 200° |
| 2026-04-25 17:01 | 55.34845 | -131.70110 | 97 ft | 6 kts | 251° |
| 2026-04-25 17:01 | 55.34861 | -131.70184 | 95 ft | 7 kts | 315° |
| 2026-04-25 17:01 | 55.34874 | -131.70207 | 98 ft | 0 kts | 315° |
| 2026-04-25 17:02 | 55.34919 | -131.70323 | 96 ft | 23 kts | 276° |
| 2026-04-25 17:02 | 55.34901 | -131.70378 | 97 ft | 7 kts | 193° |
| 2026-04-25 17:03 | 55.34799 | -131.70266 | 97 ft | 14 kts | 123° |
| 2026-04-25 17:03 | 55.34769 | -131.70117 | 98 ft | 13 kts | 75° |
| 2026-04-25 17:03 | 55.34807 | -131.70060 | 98 ft | 4 kts | 7° |
| 2026-04-25 17:03 | 55.34817 | -131.70080 | 96 ft | 5 kts | 304° |
| 2026-04-25 17:04 | 55.34837 | -131.70142 | 99 ft | 6 kts | 304° |
| 2026-04-25 17:04 | 55.34860 | -131.70183 | 98 ft | 0 kts | 316° |
| 2026-04-25 17:04 | 55.34896 | -131.70245 | 96 ft | 35 kts | 315° |
| 2026-04-25 17:04 | 55.35275 | -131.70898 | 94 ft | 114 kts | 315° |
| 2026-04-25 17:05 | 55.36000 | -131.72129 | 436 ft | 160 kts | 317° |
| 2026-04-25 17:05 | 55.38070 | -131.74554 | 2200 ft | 196 kts | 340° |
| 2026-04-25 17:05 | 55.39368 | -131.75329 | 3110 ft | 199 kts | 342° |
| 2026-04-25 17:06 | 55.40738 | -131.76158 | 3778 ft | 218 kts | 338° |
| 2026-04-25 17:06 | 55.42195 | -131.77239 | 4486 ft | 236 kts | 336° |
| 2026-04-25 17:06 | 55.43729 | -131.78498 | 5325 ft | 247 kts | 334° |
| 2026-04-25 17:06 | 55.45295 | -131.79827 | 6302 ft | 253 kts | 334° |
| 2026-04-25 17:07 | 55.46909 | -131.81188 | 7236 ft | 260 kts | 335° |
| 2026-04-25 17:07 | 55.48554 | -131.82561 | 8219 ft | 263 kts | 335° |
| 2026-04-25 17:07 | 55.50228 | -131.83944 | 9196 ft | 268 kts | 335° |
| 2026-04-25 17:07 | 55.51935 | -131.85342 | 9761 ft | 271 kts | 335° |
| 2026-04-25 17:08 | 55.53660 | -131.86747 | 9977 ft | 275 kts | 335° |
| 2026-04-25 17:08 | 55.55440 | -131.88190 | 10143 ft | 292 kts | 335° |
| 2026-04-25 17:08 | 55.57375 | -131.89753 | 10385 ft | 319 kts | 335° |
| 2026-04-25 17:08 | 55.59416 | -131.91399 | 11040 ft | 330 kts | 335° |
| 2026-04-25 17:09 | 55.61546 | -131.93115 | 11906 ft | 334 kts | 335° |
| 2026-04-25 17:09 | 55.63650 | -131.94811 | 12798 ft | 338 kts | 335° |
| 2026-04-25 17:09 | 55.65808 | -131.96548 | 13655 ft | 343 kts | 335° |
| 2026-04-25 17:09 | 55.68000 | -131.98317 | 14470 ft | 348 kts | 335° |
| 2026-04-25 17:10 | 55.70215 | -132.00106 | 15252 ft | 352 kts | 335° |
| 2026-04-25 17:10 | 55.72452 | -132.01911 | 16045 ft | 356 kts | 335° |
| 2026-04-25 17:10 | 55.74723 | -132.03745 | 16807 ft | 360 kts | 336° |
| 2026-04-25 17:10 | 55.77015 | -132.05598 | 17549 ft | 365 kts | 336° |
| 2026-04-25 17:11 | 55.79343 | -132.07482 | 18318 ft | 370 kts | 336° |
| 2026-04-25 17:11 | 55.81700 | -132.09393 | 19007 ft | 374 kts | 336° |
| 2026-04-25 17:11 | 55.84077 | -132.11323 | 19654 ft | 377 kts | 336° |
| 2026-04-25 17:11 | 55.86474 | -132.13273 | 20273 ft | 381 kts | 336° |
| 2026-04-25 17:12 | 55.88900 | -132.15248 | 20896 ft | 385 kts | 335° |
| 2026-04-25 17:12 | 55.91354 | -132.17250 | 21507 ft | 389 kts | 335° |
| 2026-04-25 17:12 | 55.93824 | -132.19267 | 22133 ft | 392 kts | 335° |
| 2026-04-25 17:12 | 55.96322 | -132.21310 | 22751 ft | 396 kts | 335° |
| 2026-04-25 17:13 | 55.98838 | -132.23371 | 23332 ft | 400 kts | 335° |
| 2026-04-25 17:13 | 56.00518 | -132.24748 | 23739 ft | 402 kts | 335° |
| 2026-04-25 17:13 | 56.03931 | -132.27552 | 24437 ft | 405 kts | 335° |
| 2026-04-25 17:13 | 56.06499 | -132.29663 | 24960 ft | 407 kts | 335° |
| 2026-04-25 17:14 | 56.09073 | -132.31784 | 25211 ft | 409 kts | 335° |
| 2026-04-25 17:14 | 56.11628 | -132.33892 | 25230 ft | 409 kts | 335° |
| 2026-04-25 17:14 | 56.14239 | -132.36048 | 25240 ft | 408 kts | 335° |
| 2026-04-25 17:14 | 56.16822 | -132.38186 | 25250 ft | 410 kts | 335° |
| 2026-04-25 17:15 | 56.19380 | -132.40305 | 25258 ft | 410 kts | 335° |
| 2026-04-25 17:15 | 56.21970 | -132.42455 | 25243 ft | 410 kts | 335° |
| 2026-04-25 17:15 | 56.24559 | -132.44607 | 25253 ft | 410 kts | 335° |
| 2026-04-25 17:15 | 56.27150 | -132.46764 | 25250 ft | 411 kts | 335° |
| 2026-04-25 17:16 | 56.29746 | -132.48928 | 25250 ft | 412 kts | 336° |
| 2026-04-25 17:16 | 56.32344 | -132.51095 | 25248 ft | 412 kts | 335° |
| 2026-04-25 17:16 | 56.34950 | -132.53261 | 25244 ft | 413 kts | 336° |
| 2026-04-25 17:16 | 56.37563 | -132.55419 | 25236 ft | 412 kts | 334° |
| 2026-04-25 17:17 | 56.40173 | -132.57569 | 25207 ft | 412 kts | 333° |
| 2026-04-25 17:17 | 56.42764 | -132.59773 | 25222 ft | 412 kts | 333° |
| 2026-04-25 17:17 | 56.45351 | -132.61983 | 25232 ft | 412 kts | 334° |
| 2026-04-25 17:17 | 56.47949 | -132.64171 | 25254 ft | 413 kts | 334° |
| 2026-04-25 17:18 | 56.50555 | -132.66399 | 25247 ft | 415 kts | 334° |
| 2026-04-25 17:18 | 56.53173 | -132.68634 | 25251 ft | 417 kts | 334° |
| 2026-04-25 17:18 | 56.55802 | -132.70869 | 25258 ft | 418 kts | 334° |
| 2026-04-25 17:18 | 56.58432 | -132.73100 | 25256 ft | 418 kts | 334° |
| 2026-04-25 17:19 | 56.61076 | -132.75344 | 25261 ft | 418 kts | 334° |
| 2026-04-25 17:19 | 56.63705 | -132.77578 | 25269 ft | 418 kts | 334° |
| 2026-04-25 17:19 | 56.66333 | -132.79814 | 25261 ft | 417 kts | 334° |
| 2026-04-25 17:19 | 56.68967 | -132.82056 | 25265 ft | 416 kts | 334° |
| 2026-04-25 17:20 | 56.71589 | -132.84277 | 25264 ft | 416 kts | 334° |
| 2026-04-25 17:20 | 56.74208 | -132.86510 | 25271 ft | 415 kts | 334° |
| 2026-04-25 17:20 | 56.76779 | -132.88725 | 25268 ft | 415 kts | 334° |
| 2026-04-25 17:20 | 56.79393 | -132.90980 | 25269 ft | 415 kts | 334° |
| 2026-04-25 17:21 | 56.81998 | -132.93227 | 25272 ft | 415 kts | 334° |
| 2026-04-25 17:21 | 56.84616 | -132.95472 | 25265 ft | 415 kts | 334° |
| 2026-04-25 17:21 | 56.87231 | -132.97716 | 25271 ft | 415 kts | 334° |
| 2026-04-25 17:21 | 56.89847 | -132.99967 | 25271 ft | 416 kts | 334° |
| 2026-04-25 17:22 | 56.92462 | -133.02223 | 25274 ft | 416 kts | 334° |
| 2026-04-25 17:22 | 56.94202 | -133.03729 | 25266 ft | 417 kts | 334° |
| 2026-04-25 17:22 | 56.97708 | -133.06770 | 25271 ft | 417 kts | 334° |
| 2026-04-25 17:22 | 57.00330 | -133.09048 | 25269 ft | 417 kts | 334° |
| 2026-04-25 17:23 | 57.02952 | -133.11330 | 25270 ft | 417 kts | 334° |
| 2026-04-25 17:23 | 57.05575 | -133.13617 | 25272 ft | 417 kts | 333° |
| 2026-04-25 17:23 | 57.08202 | -133.15911 | 25274 ft | 418 kts | 333° |
| 2026-04-25 17:23 | 57.10827 | -133.18206 | 25280 ft | 418 kts | 333° |
| 2026-04-25 17:24 | 57.13448 | -133.20502 | 25280 ft | 418 kts | 333° |
| 2026-04-25 17:24 | 57.16072 | -133.22804 | 25284 ft | 418 kts | 333° |
| 2026-04-25 17:24 | 57.18706 | -133.25118 | 25287 ft | 418 kts | 333° |
| 2026-04-25 17:24 | 57.21330 | -133.27427 | 25293 ft | 419 kts | 333° |
| 2026-04-25 17:25 | 57.23964 | -133.29749 | 25284 ft | 419 kts | 333° |
| 2026-04-25 17:25 | 57.26591 | -133.32068 | 25288 ft | 419 kts | 333° |
| 2026-04-25 17:25 | 57.29190 | -133.34366 | 25282 ft | 420 kts | 333° |
| 2026-04-25 17:25 | 57.31861 | -133.36732 | 25288 ft | 420 kts | 333° |
| 2026-04-25 17:26 | 57.34493 | -133.39066 | 25289 ft | 420 kts | 333° |
| 2026-04-25 17:26 | 57.37097 | -133.41380 | 25293 ft | 420 kts | 333° |
| 2026-04-25 17:26 | 57.39732 | -133.43724 | 25290 ft | 420 kts | 333° |
| 2026-04-25 17:26 | 57.42367 | -133.46073 | 25290 ft | 420 kts | 333° |
| 2026-04-25 17:27 | 57.45000 | -133.48424 | 25293 ft | 420 kts | 333° |
| 2026-04-25 17:27 | 57.47634 | -133.50779 | 25296 ft | 421 kts | 333° |
| 2026-04-25 17:27 | 57.50277 | -133.53147 | 25294 ft | 421 kts | 333° |
| 2026-04-25 17:27 | 57.51165 | -133.53943 | 25293 ft | 421 kts | 333° |
| 2026-04-25 17:28 | 57.55548 | -133.57879 | 25296 ft | 421 kts | 333° |
| 2026-04-25 17:28 | 57.58186 | -133.60253 | 25301 ft | 421 kts | 333° |
| 2026-04-25 17:28 | 57.60821 | -133.62629 | 25303 ft | 421 kts | 333° |
| 2026-04-25 17:28 | 57.63454 | -133.65006 | 25301 ft | 421 kts | 333° |
| 2026-04-25 17:29 | 57.66090 | -133.67389 | 25305 ft | 421 kts | 333° |
| 2026-04-25 17:29 | 57.68728 | -133.69779 | 25303 ft | 421 kts | 332° |
| 2026-04-25 17:29 | 57.71363 | -133.72171 | 25305 ft | 421 kts | 332° |
| 2026-04-25 17:29 | 57.73995 | -133.74563 | 25308 ft | 421 kts | 332° |
| 2026-04-25 17:30 | 57.76634 | -133.76965 | 25313 ft | 422 kts | 332° |
| 2026-04-25 17:30 | 57.79282 | -133.79379 | 25311 ft | 423 kts | 332° |
| 2026-04-25 17:30 | 57.81924 | -133.81791 | 25311 ft | 424 kts | 332° |
| 2026-04-25 17:30 | 57.84457 | -133.84611 | 25298 ft | 422 kts | 320° |
| 2026-04-25 17:31 | 57.86532 | -133.88483 | 25324 ft | 420 kts | 306° |
| 2026-04-25 17:31 | 57.88085 | -133.93124 | 25165 ft | 420 kts | 294° |
| 2026-04-25 17:31 | 57.89255 | -133.98126 | 24907 ft | 416 kts | 291° |
| 2026-04-25 17:31 | 57.90357 | -134.03147 | 24638 ft | 414 kts | 290° |
| 2026-04-25 17:32 | 57.91438 | -134.08152 | 24369 ft | 414 kts | 290° |
| 2026-04-25 17:32 | 57.92533 | -134.13200 | 23894 ft | 417 kts | 290° |
| 2026-04-25 17:32 | 57.93633 | -134.18214 | 23332 ft | 411 kts | 291° |
| 2026-04-25 17:32 | 57.94719 | -134.23127 | 22806 ft | 404 kts | 291° |
| 2026-04-25 17:33 | 57.95795 | -134.27975 | 22276 ft | 398 kts | 291° |
| 2026-04-25 17:33 | 57.96861 | -134.32768 | 21753 ft | 395 kts | 291° |
| 2026-04-25 17:33 | 57.97918 | -134.37524 | 21243 ft | 392 kts | 291° |
| 2026-04-25 17:33 | 57.98951 | -134.42185 | 20741 ft | 390 kts | 291° |
| 2026-04-25 17:34 | 57.99973 | -134.46805 | 20128 ft | 390 kts | 290° |
| 2026-04-25 17:34 | 58.01022 | -134.51560 | 19537 ft | 389 kts | 290° |
| 2026-04-25 17:34 | 58.02064 | -134.56292 | 18938 ft | 388 kts | 290° |
| 2026-04-25 17:34 | 58.03105 | -134.61030 | 18308 ft | 386 kts | 290° |
| 2026-04-25 17:35 | 58.04131 | -134.65709 | 17503 ft | 386 kts | 290° |
| 2026-04-25 17:35 | 58.05151 | -134.70376 | 16623 ft | 388 kts | 290° |
| 2026-04-25 17:35 | 58.06174 | -134.75060 | 15775 ft | 388 kts | 290° |
| 2026-04-25 17:35 | 58.07197 | -134.79758 | 14943 ft | 388 kts | 290° |
| 2026-04-25 17:36 | 58.08227 | -134.84505 | 14124 ft | 388 kts | 290° |
| 2026-04-25 17:36 | 58.09227 | -134.89118 | 13241 ft | 386 kts | 290° |
| 2026-04-25 17:36 | 58.10247 | -134.93831 | 12360 ft | 385 kts | 290° |
| 2026-04-25 17:36 | 58.11269 | -134.98571 | 11502 ft | 382 kts | 291° |
| 2026-04-25 17:37 | 58.12259 | -135.03168 | 10661 ft | 371 kts | 291° |
| 2026-04-25 17:37 | 58.13212 | -135.07592 | 9793 ft | 358 kts | 291° |
| 2026-04-25 17:37 | 58.14141 | -135.11925 | 8906 ft | 348 kts | 291° |
| 2026-04-25 17:37 | 58.15029 | -135.16078 | 8050 ft | 339 kts | 291° |
| 2026-04-25 17:38 | 58.15932 | -135.20138 | 7427 ft | 327 kts | 296° |
| 2026-04-25 17:38 | 58.16332 | -135.21385 | 7332 ft | 321 kts | 304° |
| 2026-04-25 17:38 | 58.19130 | -135.25507 | 7112 ft | 295 kts | 334° |
| 2026-04-25 17:38 | 58.21039 | -135.26514 | 7014 ft | 276 kts | 349° |
| 2026-04-25 17:39 | 58.22900 | -135.26911 | 6985 ft | 264 kts | 353° |
| 2026-04-25 17:39 | 58.24760 | -135.27187 | 6730 ft | 275 kts | 353° |
| 2026-04-25 17:39 | 58.26649 | -135.27452 | 6351 ft | 277 kts | 353° |
| 2026-04-25 17:39 | 58.28573 | -135.27727 | 5973 ft | 278 kts | 353° |
| 2026-04-25 17:40 | 58.30500 | -135.28013 | 5591 ft | 278 kts | 354° |
| 2026-04-25 17:40 | 58.32426 | -135.28309 | 5225 ft | 277 kts | 354° |
| 2026-04-25 17:40 | 58.34332 | -135.28606 | 5013 ft | 271 kts | 353° |
| 2026-04-25 17:40 | 58.36155 | -135.28894 | 5020 ft | 257 kts | 354° |
| 2026-04-25 17:41 | 58.37938 | -135.28715 | 4977 ft | 260 kts | 19° |
| 2026-04-25 17:41 | 58.39371 | -135.26759 | 5014 ft | 261 kts | 51° |
| 2026-04-25 17:41 | 58.40137 | -135.23590 | 5004 ft | 263 kts | 79° |
| 2026-04-25 17:41 | 58.40096 | -135.20173 | 5015 ft | 263 kts | 105° |
| 2026-04-25 17:42 | 58.39442 | -135.16923 | 4999 ft | 262 kts | 115° |
| 2026-04-25 17:42 | 58.38685 | -135.13759 | 4995 ft | 261 kts | 115° |
| 2026-04-25 17:42 | 58.37929 | -135.10584 | 4432 ft | 265 kts | 115° |
| 2026-04-25 17:42 | 58.37189 | -135.07428 | 3875 ft | 258 kts | 114° |
| 2026-04-25 17:43 | 58.36473 | -135.04354 | 3385 ft | 250 kts | 114° |
| 2026-04-25 17:43 | 58.35811 | -135.01408 | 3245 ft | 231 kts | 108° |
| 2026-04-25 17:43 | 58.35667 | -134.98548 | 3207 ft | 207 kts | 88° |
| 2026-04-25 17:43 | 58.35691 | -134.95865 | 3195 ft | 200 kts | 89° |
| 2026-04-25 17:44 | 58.35702 | -134.93210 | 3199 ft | 201 kts | 89° |
| 2026-04-25 17:44 | 58.35711 | -134.90532 | 3214 ft | 204 kts | 89° |
| 2026-04-25 17:44 | 58.35721 | -134.87881 | 3208 ft | 193 kts | 89° |
| 2026-04-25 17:44 | 58.35729 | -134.85469 | 3184 ft | 170 kts | 89° |
| 2026-04-25 17:45 | 58.35735 | -134.83424 | 3225 ft | 148 kts | 89° |
| 2026-04-25 17:45 | 58.35737 | -134.82755 | 3220 ft | 149 kts | 89° |
| 2026-04-25 17:45 | 58.35749 | -134.79423 | 2710 ft | 151 kts | 89° |
| 2026-04-25 17:45 | 58.35756 | -134.77465 | 2253 ft | 145 kts | 89° |
| 2026-04-25 17:46 | 58.35761 | -134.75564 | 2022 ft | 144 kts | 90° |
| 2026-04-25 17:46 | 58.35765 | -134.73669 | 2001 ft | 139 kts | 90° |
| 2026-04-25 17:46 | 58.35769 | -134.71856 | 1894 ft | 138 kts | 90° |
| 2026-04-25 17:46 | 58.35778 | -134.70025 | 1580 ft | 137 kts | 88° |
| 2026-04-25 17:47 | 58.35836 | -134.68247 | 1307 ft | 131 kts | 85° |
| 2026-04-25 17:47 | 58.35902 | -134.66537 | 1066 ft | 129 kts | 85° |
| 2026-04-25 17:47 | 58.35980 | -134.64804 | 841 ft | 134 kts | 84° |
| 2026-04-25 17:47 | 58.36045 | -134.62998 | 579 ft | 140 kts | 88° |
| 2026-04-25 17:48 | 58.35753 | -134.59476 | 66 ft | 133 kts | 104° |
| 2026-04-25 17:48 | 58.35530 | -134.57869 | 33 ft | 96 kts | 106° |
| 2026-04-25 17:48 | 58.35459 | -134.57328 | 33 ft | 17 kts | 82° |
| 2026-04-25 17:49 | 58.35502 | -134.57246 | 33 ft | 7 kts | 16° |
| 2026-04-25 17:49 | 58.35532 | -134.57258 | 31 ft | 7 kts | 332° |
| 2026-04-25 17:49 | 58.35564 | -134.57323 | 32 ft | 7 kts | 294° |
| 2026-04-25 17:49 | 58.35578 | -134.57412 | 32 ft | 7 kts | 285° |
| 2026-04-25 17:50 | 58.35594 | -134.57526 | 32 ft | 12 kts | 285° |
| 2026-04-25 17:50 | 58.35616 | -134.57683 | 31 ft | 12 kts | 284° |
| 2026-04-25 17:50 | 58.35638 | -134.57839 | 32 ft | 12 kts | 285° |
| 2026-04-25 17:50 | 58.35657 | -134.57977 | 32 ft | 10 kts | 284° |
| 2026-04-25 17:51 | 58.35675 | -134.58108 | 32 ft | 10 kts | 284° |
| 2026-04-25 17:51 | 58.35694 | -134.58233 | 32 ft | 9 kts | 290° |
| 2026-04-25 17:51 | 58.35726 | -134.58295 | 32 ft | 7 kts | 343° |
| 2026-04-25 17:51 | 58.35773 | -134.58302 | 31 ft | 7 kts | 0° |
| 2026-04-25 17:52 | 58.35813 | -134.58302 | 32 ft | 5 kts | 360° |
| 2026-04-25 17:52 | 58.35829 | -134.58303 | 32 ft | 1 kts | 359° |
| 2026-04-25 17:52 | 58.35830 | -134.58303 | 32 ft | 0 kts | 359° |